createdAt,value
2023-04-27T00:00:47.223Z,6.81
2023-04-27T00:03:15.978Z,6.79
2023-04-27T00:05:44.166Z,6.59
2023-04-27T00:08:12.001Z,6.60
2023-04-27T00:10:39.804Z,6.46
2023-04-27T00:13:07.587Z,6.47
2023-04-27T00:15:36.713Z,6.50
2023-04-27T00:18:04.805Z,6.51
2023-04-27T00:20:33.802Z,6.48
2023-04-27T00:23:01.461Z,6.50
2023-04-27T00:25:29.413Z,6.42
2023-04-27T00:27:57.004Z,6.46
2023-04-27T00:30:26.108Z,6.54
2023-04-27T00:32:56.124Z,6.55
2023-04-27T00:35:24.404Z,6.46
2023-04-27T00:37:54.194Z,6.41
2023-04-27T00:40:22.190Z,6.42
2023-04-27T00:42:49.887Z,6.46
2023-04-27T00:45:17.589Z,6.43
2023-04-27T00:47:45.839Z,6.41
2023-04-27T00:50:15.592Z,6.36
2023-04-27T00:52:43.779Z,6.43
2023-04-27T00:55:11.678Z,6.45
2023-04-27T00:57:41.289Z,6.47
2023-04-27T01:00:11.855Z,6.38
2023-04-27T01:02:40.864Z,6.29
2023-04-27T01:05:09.365Z,6.33
2023-04-27T01:07:40.134Z,6.33
2023-04-27T01:10:08.972Z,5.98
2023-04-27T01:12:36.968Z,5.95
2023-04-27T01:15:07.858Z,6.28
2023-04-27T01:17:35.744Z,6.25
2023-04-27T01:20:07.571Z,6.23
2023-04-27T01:22:36.147Z,6.19
2023-04-27T01:25:06.319Z,6.18
2023-04-27T01:27:33.952Z,6.18
2023-04-27T01:30:01.593Z,6.08
2023-04-27T01:32:29.422Z,6.02
2023-04-27T01:34:57.104Z,5.99
2023-04-27T01:37:27.683Z,5.86
2023-04-27T01:39:55.326Z,5.80
2023-04-27T01:42:24.301Z,5.76
2023-04-27T01:44:51.952Z,5.74
2023-04-27T01:47:19.553Z,5.65
2023-04-27T01:49:47.171Z,5.64
2023-04-27T01:52:14.803Z,5.59
2023-04-27T01:54:42.438Z,5.56
2023-04-27T01:57:10.955Z,5.11
2023-04-27T01:59:39.906Z,5.40
2023-04-27T02:02:07.972Z,5.36
2023-04-27T02:04:37.827Z,5.30
2023-04-27T02:07:05.616Z,5.20
2023-04-27T02:09:33.359Z,5.16
2023-04-27T02:12:02.593Z,5.12
2023-04-27T02:14:30.404Z,5.06
2023-04-27T02:16:59.412Z,5.00
2023-04-27T02:19:27.063Z,5.00
2023-04-27T02:21:54.756Z,4.94
2023-04-27T02:24:22.952Z,4.94
2023-04-27T02:26:50.585Z,4.87
2023-04-27T02:29:19.486Z,4.84
2023-04-27T02:31:47.700Z,4.83
2023-04-27T02:34:16.930Z,4.84
2023-04-27T02:36:44.591Z,4.86
2023-04-27T02:39:12.643Z,4.93
2023-04-27T02:41:40.614Z,4.93
2023-04-27T02:44:09.128Z,4.94
2023-04-27T02:46:36.826Z,4.92
2023-04-27T02:49:04.440Z,4.92
2023-04-27T02:51:33.396Z,4.90
2023-04-27T02:54:01.192Z,4.94
2023-04-27T02:56:29.227Z,4.94
2023-04-27T02:58:57.267Z,4.87
2023-04-27T03:01:25.248Z,5.05
2023-04-27T03:03:53.189Z,5.22
2023-04-27T03:06:20.847Z,5.32
2023-04-27T03:08:49.834Z,5.31
2023-04-27T03:11:17.541Z,5.35
2023-04-27T03:13:45.202Z,5.41
2023-04-27T03:16:13.025Z,5.50
2023-04-27T03:18:41.192Z,5.61
2023-04-27T03:21:10.640Z,5.71
2023-04-27T03:23:38.623Z,5.82
2023-04-27T03:26:12.075Z,5.86
2023-04-27T03:28:39.996Z,5.96
2023-04-27T03:31:08.575Z,6.00
2023-04-27T03:33:37.394Z,6.02
2023-04-27T03:36:06.695Z,6.00
2023-04-27T03:38:35.499Z,6.06
2023-04-27T03:41:03.135Z,6.16
2023-04-27T03:43:32.457Z,6.17
2023-04-27T03:46:00.310Z,6.22
2023-04-27T03:48:27.991Z,6.27
2023-04-27T03:50:56.551Z,6.31
2023-04-27T03:53:24.221Z,6.31
2023-04-27T03:55:52.433Z,6.36
2023-04-27T03:58:20.399Z,6.40
2023-04-27T04:01:14.704Z,6.45
2023-04-27T04:03:43.390Z,6.40
2023-04-27T04:06:12.679Z,6.42
2023-04-27T04:08:40.534Z,6.44
2023-04-27T04:11:08.159Z,6.47
2023-04-27T04:13:37.075Z,6.49
2023-04-27T04:16:05.853Z,6.53
2023-04-27T04:18:36.042Z,6.57
2023-04-27T04:21:04.212Z,6.54
2023-04-27T04:23:32.862Z,6.56
2023-04-27T04:26:02.084Z,6.54
2023-04-27T04:28:33.830Z,6.51
2023-04-27T04:31:02.736Z,6.54
2023-04-27T04:33:31.147Z,6.60
2023-04-27T04:36:00.384Z,6.65
2023-04-27T04:38:28.421Z,6.71
2023-04-27T04:40:56.088Z,6.77
2023-04-27T04:43:23.833Z,6.81
2023-04-27T04:45:51.612Z,6.83
2023-04-27T04:48:20.287Z,6.90
2023-04-27T04:50:48.104Z,6.94
2023-04-27T04:53:17.086Z,6.91
2023-04-27T04:55:44.825Z,6.88
2023-04-27T04:58:12.435Z,6.74
2023-04-27T05:00:40.046Z,6.78
2023-04-27T05:03:08.048Z,6.79
2023-04-27T05:05:35.827Z,6.87
2023-04-27T05:08:03.518Z,7.00
2023-04-27T05:10:32.547Z,7.17
2023-04-27T05:13:00.161Z,7.27
2023-04-27T05:15:27.800Z,7.42
2023-04-27T05:17:55.430Z,7.33
2023-04-27T05:20:23.498Z,7.50
2023-04-27T05:22:51.407Z,7.69
2023-04-27T05:25:19.304Z,7.89
2023-04-27T05:27:48.264Z,8.13
2023-04-27T05:30:16.025Z,8.12
2023-04-27T05:32:43.642Z,8.17
2023-04-27T05:35:11.337Z,8.28
2023-04-27T05:37:39.033Z,8.34
2023-04-27T05:40:09.632Z,8.38
2023-04-27T05:42:37.349Z,8.52
2023-04-27T05:45:07.828Z,8.59
2023-04-27T05:47:35.573Z,8.53
2023-04-27T05:50:03.693Z,8.52
2023-04-27T05:52:31.661Z,8.43
2023-04-27T05:54:59.721Z,8.60
2023-04-27T05:57:28.022Z,8.72
2023-04-27T05:59:56.188Z,8.67
2023-04-27T06:02:25.301Z,8.81
2023-04-27T06:04:53.102Z,9.10
2023-04-27T06:07:21.335Z,9.26
2023-04-27T06:09:48.952Z,9.19
2023-04-27T06:12:16.664Z,9.06
2023-04-27T06:14:44.242Z,9.35
2023-04-27T06:17:11.929Z,9.20
2023-04-27T06:19:40.973Z,9.20
2023-04-27T06:22:08.555Z,9.33
2023-04-27T06:24:36.715Z,9.49
2023-04-27T06:27:04.533Z,9.62
2023-04-27T06:29:32.204Z,9.32
2023-04-27T06:32:00.083Z,9.59
2023-04-27T06:34:27.966Z,9.57
2023-04-27T06:36:56.925Z,9.79
2023-04-27T06:39:24.524Z,9.91
2023-04-27T06:41:52.158Z,10.00
2023-04-27T06:44:19.911Z,9.82
2023-04-27T06:46:47.547Z,10.09
2023-04-27T06:49:15.442Z,10.09
2023-04-27T06:51:43.463Z,10.38
2023-04-27T06:54:12.503Z,10.55
2023-04-27T06:56:40.178Z,10.25
2023-04-27T06:59:08.601Z,10.60
2023-04-27T07:01:36.537Z,10.72
2023-04-27T07:04:04.622Z,10.74
2023-04-27T07:06:32.638Z,10.83
2023-04-27T07:09:00.643Z,10.78
2023-04-27T07:11:29.577Z,10.70
2023-04-27T07:13:57.219Z,10.80
2023-04-27T07:16:24.938Z,10.60
2023-04-27T07:18:52.636Z,11.05
2023-04-27T07:21:20.526Z,11.08
2023-04-27T07:23:48.123Z,11.16
2023-04-27T07:26:15.893Z,11.24
2023-04-27T07:28:44.905Z,11.51
2023-04-27T07:31:12.973Z,11.73
2023-04-27T07:33:40.855Z,11.78
2023-04-27T07:36:08.829Z,11.79
2023-04-27T07:38:38.348Z,12.13
2023-04-27T07:41:07.272Z,12.09
2023-04-27T07:43:35.112Z,12.60
2023-04-27T07:46:04.435Z,13.03
2023-04-27T07:48:32.613Z,12.93
2023-04-27T07:51:00.199Z,13.15
2023-04-27T07:53:27.811Z,13.41
2023-04-27T07:55:55.447Z,13.41
2023-04-27T07:58:23.213Z,12.75
2023-04-27T08:00:50.855Z,12.52
2023-04-27T08:03:19.965Z,12.54
2023-04-27T08:05:47.821Z,12.71
2023-04-27T08:08:15.993Z,12.99
2023-04-27T08:10:43.845Z,12.43
2023-04-27T08:13:12.081Z,12.67
2023-04-27T08:15:39.849Z,12.93
2023-04-27T08:18:07.548Z,13.29
2023-04-27T08:20:36.556Z,13.61
2023-04-27T08:23:04.209Z,13.25
2023-04-27T08:25:31.873Z,13.70
2023-04-27T08:27:59.440Z,13.48
2023-04-27T08:30:27.065Z,13.37
2023-04-27T08:32:54.960Z,13.64
2023-04-27T08:35:22.716Z,13.71
2023-04-27T08:37:51.768Z,13.81
2023-04-27T08:40:20.850Z,14.00
2023-04-27T08:42:56.210Z,14.08
2023-04-27T08:45:24.385Z,14.78
2023-04-27T08:47:52.809Z,14.85
2023-04-27T08:50:21.268Z,14.86
2023-04-27T08:52:52.086Z,14.90
2023-04-27T08:55:20.170Z,14.97
2023-04-27T08:57:58.320Z,15.17
2023-04-27T09:00:27.012Z,15.58
2023-04-27T09:02:55.042Z,15.66
2023-04-27T09:05:23.972Z,15.13
2023-04-27T09:08:00.713Z,15.05
2023-04-27T09:10:29.930Z,15.01
2023-04-27T09:12:59.116Z,15.34
2023-04-27T09:15:26.823Z,15.67
2023-04-27T09:17:56.227Z,15.75
2023-04-27T09:20:26.821Z,15.91
2023-04-27T09:22:55.964Z,16.18
2023-04-27T09:25:26.665Z,16.39
2023-04-27T09:27:54.613Z,16.46
2023-04-27T09:30:22.540Z,16.49
2023-04-27T09:32:54.430Z,16.55
2023-04-27T09:35:24.163Z,16.56
2023-04-27T09:37:53.769Z,16.90
2023-04-27T09:40:26.479Z,16.12
2023-04-27T09:42:57.179Z,16.67
2023-04-27T09:45:25.514Z,16.77
2023-04-27T09:47:53.801Z,16.99
2023-04-27T09:50:22.516Z,16.99
2023-04-27T09:52:50.410Z,16.98
2023-04-27T09:55:22.157Z,17.22
2023-04-27T09:57:59.925Z,17.02
2023-04-27T10:00:43.409Z,17.34
2023-04-27T10:03:23.163Z,17.63
2023-04-27T10:06:26.537Z,17.70
2023-04-27T10:08:54.244Z,17.61
2023-04-27T10:11:23.052Z,17.33
2023-04-27T10:13:56.281Z,17.39
2023-04-27T10:16:24.046Z,17.62
2023-04-27T10:18:54.005Z,18.34
2023-04-27T10:21:22.053Z,18.54
2023-04-27T10:23:51.250Z,18.87
2023-04-27T10:26:26.048Z,18.33
2023-04-27T10:29:07.501Z,18.10
2023-04-27T10:31:35.809Z,18.25
2023-04-27T10:34:08.466Z,18.08
2023-04-27T10:36:37.951Z,18.12
2023-04-27T10:39:16.127Z,18.08
2023-04-27T10:41:52.093Z,18.46
2023-04-27T10:44:27.094Z,18.48
2023-04-27T10:46:55.986Z,18.77
2023-04-27T10:49:24.163Z,18.81
2023-04-27T10:51:52.455Z,19.18
2023-04-27T10:54:20.283Z,19.26
2023-04-27T10:56:48.219Z,18.96
2023-04-27T10:59:16.266Z,18.64
2023-04-27T11:01:50.027Z,18.33
2023-04-27T11:04:18.541Z,18.29
2023-04-27T11:06:47.112Z,18.79
2023-04-27T11:09:15.705Z,19.39
2023-04-27T11:11:46.809Z,19.55
2023-04-27T11:14:21.616Z,19.98
2023-04-27T11:16:51.086Z,20.46
2023-04-27T11:19:18.719Z,20.16
2023-04-27T11:21:46.523Z,20.16
2023-04-27T11:24:15.553Z,20.42
2023-04-27T11:26:43.345Z,20.60
2023-04-27T11:29:13.860Z,20.01
2023-04-27T11:31:47.378Z,19.99
2023-04-27T11:34:19.722Z,20.11
2023-04-27T11:37:07.113Z,19.85
2023-04-27T11:39:42.965Z,19.81
2023-04-27T11:42:19.051Z,20.30
2023-04-27T11:44:53.151Z,19.61
2023-04-27T11:47:22.384Z,20.19
2023-04-27T11:49:52.845Z,20.04
2023-04-27T11:52:20.725Z,20.14
2023-04-27T11:54:49.612Z,19.99
2023-04-27T11:57:17.446Z,20.13
2023-04-27T11:59:45.118Z,19.88
2023-04-27T12:02:12.783Z,19.84
2023-04-27T12:04:40.731Z,19.89
2023-04-27T12:07:10.214Z,20.01
2023-04-27T12:09:37.830Z,20.24
2023-04-27T12:12:06.371Z,19.80
2023-04-27T12:14:34.061Z,19.58
2023-04-27T12:17:02.007Z,19.71
2023-04-27T12:19:30.471Z,19.84
2023-04-27T12:21:58.513Z,20.13
2023-04-27T12:24:27.739Z,19.85
2023-04-27T12:26:55.483Z,20.15
2023-04-27T12:29:24.415Z,20.23
2023-04-27T12:31:52.256Z,19.93
2023-04-27T12:34:20.113Z,20.34
2023-04-27T12:36:47.952Z,20.35
2023-04-27T12:39:17.129Z,20.32
2023-04-27T12:41:47.132Z,20.25
2023-04-27T12:44:16.539Z,20.54
2023-04-27T12:46:45.107Z,20.39
2023-04-27T12:49:13.393Z,20.49
2023-04-27T12:51:41.317Z,20.62
2023-04-27T12:54:10.052Z,19.97
2023-04-27T12:56:37.762Z,20.15
2023-04-27T12:59:06.816Z,20.03
2023-04-27T13:01:34.920Z,20.33
2023-04-27T13:04:05.530Z,20.40
2023-04-27T13:06:33.565Z,20.50
2023-04-27T13:09:01.305Z,20.35
2023-04-27T13:11:29.031Z,20.22
2023-04-27T13:13:56.641Z,19.94
2023-04-27T13:16:26.413Z,20.07
2023-04-27T13:18:55.467Z,20.20
2023-04-27T13:21:23.367Z,20.21
2023-04-27T13:23:53.592Z,20.47
2023-04-27T13:26:22.376Z,20.70
2023-04-27T13:28:50.136Z,20.81
2023-04-27T13:31:17.889Z,21.09
2023-04-27T13:33:47.005Z,21.18
2023-04-27T13:36:14.698Z,20.88
2023-04-27T13:38:42.707Z,21.05
2023-04-27T13:41:10.335Z,20.68
2023-04-27T13:43:37.966Z,20.54
2023-04-27T13:46:05.800Z,20.56
2023-04-27T13:48:33.481Z,20.91
2023-04-27T13:51:02.466Z,20.78
2023-04-27T13:53:30.213Z,20.65
2023-04-27T13:55:58.914Z,20.42
2023-04-27T13:58:28.480Z,20.50
2023-04-27T14:00:56.456Z,20.33
2023-04-27T14:03:24.531Z,20.35
2023-04-27T14:05:52.192Z,20.29
2023-04-27T14:08:21.687Z,20.15
2023-04-27T14:10:49.893Z,20.05
2023-04-27T14:13:19.754Z,20.17
2023-04-27T14:15:47.415Z,20.40
2023-04-27T14:18:15.552Z,20.04
2023-04-27T14:20:45.341Z,20.15
2023-04-27T14:23:13.184Z,20.22
2023-04-27T14:25:42.161Z,19.72
2023-04-27T14:28:12.254Z,19.54
2023-04-27T14:30:40.002Z,19.58
2023-04-27T14:33:07.840Z,19.93
2023-04-27T14:35:37.008Z,20.04
2023-04-27T14:38:05.585Z,19.97
2023-04-27T14:40:33.914Z,19.86
2023-04-27T14:43:02.931Z,20.04
2023-04-27T14:45:36.976Z,20.15
2023-04-27T14:48:11.629Z,20.11
2023-04-27T14:50:39.479Z,19.60
2023-04-27T14:53:07.068Z,19.81
2023-04-27T14:55:34.956Z,19.62
2023-04-27T14:58:04.023Z,19.53
2023-04-27T15:00:31.663Z,19.82
2023-04-27T15:02:59.308Z,20.15
2023-04-27T15:05:26.966Z,20.39
2023-04-27T15:07:54.563Z,20.68
2023-04-27T15:10:22.478Z,20.50
2023-04-27T15:12:50.082Z,20.30
2023-04-27T15:15:19.370Z,20.46
2023-04-27T15:17:46.981Z,20.33
2023-04-27T15:20:15.019Z,20.71
2023-04-27T15:22:42.702Z,20.66
2023-04-27T15:25:11.217Z,20.71
2023-04-27T15:27:39.927Z,20.71
2023-04-27T15:30:08.836Z,20.44
2023-04-27T15:32:37.921Z,20.50
2023-04-27T15:35:06.723Z,20.17
2023-04-27T15:37:36.581Z,20.39
2023-04-27T15:40:07.362Z,20.22
2023-04-27T15:42:35.052Z,20.09
2023-04-27T15:45:02.832Z,19.67
2023-04-27T15:47:30.609Z,19.37
2023-04-27T15:49:59.540Z,19.17
2023-04-27T15:52:27.370Z,19.50
2023-04-27T15:54:55.768Z,19.99
2023-04-27T15:57:23.416Z,20.21
2023-04-27T15:59:51.013Z,20.05
2023-04-27T16:02:19.353Z,20.04
2023-04-27T16:04:47.081Z,19.92
2023-04-27T16:07:16.110Z,19.81
2023-04-27T16:09:43.793Z,19.72
2023-04-27T16:12:11.452Z,19.66
2023-04-27T16:14:39.205Z,19.49
2023-04-27T16:17:06.846Z,19.39
2023-04-27T16:19:34.466Z,19.14
2023-04-27T16:22:04.029Z,19.31
2023-04-27T16:24:33.025Z,19.25
2023-04-27T16:27:01.285Z,19.06
2023-04-27T16:29:29.376Z,19.12
2023-04-27T16:31:57.090Z,19.32
2023-04-27T16:34:24.892Z,18.96
2023-04-27T16:36:52.562Z,18.96
2023-04-27T16:39:20.326Z,18.85
2023-04-27T16:41:49.764Z,18.83
2023-04-27T16:44:17.513Z,18.96
2023-04-27T16:46:45.475Z,19.03
2023-04-27T16:49:13.876Z,18.77
2023-04-27T16:51:42.207Z,18.30
2023-04-27T16:54:10.492Z,18.07
2023-04-27T16:56:38.153Z,17.88
2023-04-27T16:59:07.627Z,18.34
2023-04-27T17:01:35.402Z,18.45
2023-04-27T17:04:03.409Z,18.13
2023-04-27T17:06:31.381Z,17.81
2023-04-27T17:08:59.492Z,17.62
2023-04-27T17:11:27.392Z,17.36
2023-04-27T17:13:55.421Z,17.22
2023-04-27T17:16:25.014Z,16.84
2023-04-27T17:18:52.984Z,16.61
2023-04-27T17:21:22.614Z,16.46
2023-04-27T17:23:52.008Z,16.28
2023-04-27T17:26:21.440Z,16.12
2023-04-27T17:28:50.474Z,16.02
2023-04-27T17:31:18.192Z,15.82
2023-04-27T17:33:47.360Z,15.71
2023-04-27T17:36:15.143Z,15.57
2023-04-27T17:38:42.866Z,15.45
2023-04-27T17:41:10.995Z,15.23
2023-04-27T17:43:38.731Z,15.11
2023-04-27T17:46:08.027Z,14.87
2023-04-27T17:48:36.202Z,14.83
2023-04-27T17:51:05.471Z,14.67
2023-04-27T17:53:33.149Z,14.55
2023-04-27T17:56:00.956Z,14.34
2023-04-27T17:58:28.780Z,14.19
2023-04-27T18:00:56.405Z,14.09
2023-04-27T18:03:24.405Z,13.94
2023-04-27T18:05:52.606Z,13.79
2023-04-27T18:08:21.541Z,13.62
2023-04-27T18:10:49.218Z,13.41
2023-04-27T18:13:17.250Z,13.23
2023-04-27T18:15:44.910Z,13.04
2023-04-27T18:18:16.748Z,12.89
2023-04-27T18:20:44.899Z,12.72
2023-04-27T18:23:12.594Z,12.61
2023-04-27T18:25:41.595Z,12.47
2023-04-27T18:28:09.957Z,12.28
2023-04-27T18:30:37.644Z,12.10
2023-04-27T18:33:05.517Z,12.02
2023-04-27T18:35:33.265Z,11.87
2023-04-27T18:38:00.859Z,11.77
2023-04-27T18:40:28.590Z,11.26
2023-04-27T18:42:57.632Z,11.65
2023-04-27T18:45:25.396Z,11.58
2023-04-27T18:47:53.026Z,11.46
2023-04-27T18:50:20.824Z,11.37
2023-04-27T18:52:48.476Z,11.26
2023-04-27T18:55:16.797Z,11.30
2023-04-27T18:57:44.518Z,11.33
2023-04-27T19:00:14.949Z,11.28
2023-04-27T19:02:42.615Z,11.22
2023-04-27T19:05:13.478Z,11.15
2023-04-27T19:07:41.405Z,11.12
2023-04-27T19:10:10.323Z,11.18
2023-04-27T19:12:38.387Z,11.33
2023-04-27T19:15:06.626Z,11.38
2023-04-27T19:17:35.776Z,11.55
2023-04-27T19:20:03.617Z,11.74
2023-04-27T19:22:34.098Z,11.93
2023-04-27T19:25:01.983Z,12.13
2023-04-27T19:27:29.986Z,12.34
2023-04-27T19:29:58.587Z,12.54
2023-04-27T19:32:27.693Z,12.74
2023-04-27T19:34:57.851Z,12.75
2023-04-27T19:37:26.035Z,12.78
2023-04-27T19:39:53.706Z,12.89
2023-04-27T19:42:21.347Z,12.90
2023-04-27T19:44:49.028Z,12.92
2023-04-27T19:47:16.805Z,12.88
2023-04-27T19:49:44.548Z,12.74
2023-04-27T19:52:13.910Z,12.88
2023-04-27T19:54:41.684Z,12.94
2023-04-27T19:57:09.362Z,12.90
2023-04-27T19:59:37.798Z,12.89
2023-04-27T20:02:05.471Z,12.81
2023-04-27T20:04:33.457Z,12.83
2023-04-27T20:07:03.254Z,12.77
2023-04-27T20:09:33.664Z,12.73
2023-04-27T20:12:01.467Z,12.75
2023-04-27T20:14:31.183Z,12.73
2023-04-27T20:16:58.824Z,12.76
2023-04-27T20:19:26.508Z,12.70
2023-04-27T20:21:54.414Z,12.77
2023-04-27T20:24:22.554Z,12.79
2023-04-27T20:26:51.535Z,12.74
2023-04-27T20:29:19.227Z,12.71
2023-04-27T20:31:48.411Z,12.65
2023-04-27T20:34:16.271Z,12.63
2023-04-27T20:36:44.388Z,12.65
2023-04-27T20:39:12.970Z,12.60
2023-04-27T20:41:41.875Z,12.72
2023-04-27T20:44:11.719Z,12.70
2023-04-27T20:46:39.452Z,12.64
2023-04-27T20:49:07.316Z,12.55
2023-04-27T20:51:35.021Z,12.57
2023-04-27T20:54:02.777Z,12.63
2023-04-27T20:56:31.376Z,12.67
2023-04-27T20:58:59.137Z,12.70
2023-04-27T21:01:28.255Z,12.69
2023-04-27T21:03:56.024Z,12.70
2023-04-27T21:06:23.731Z,12.50
2023-04-27T21:08:51.573Z,12.72
2023-04-27T21:11:20.477Z,12.78
2023-04-27T21:13:48.087Z,12.85
2023-04-27T21:16:15.852Z,12.88
2023-04-27T21:18:44.905Z,12.88
2023-04-27T21:21:12.524Z,12.85
2023-04-27T21:23:40.651Z,12.81
2023-04-27T21:26:08.885Z,12.87
2023-04-27T21:28:36.924Z,12.98
2023-04-27T21:31:04.550Z,12.95
2023-04-27T21:33:32.271Z,12.93
2023-04-27T21:36:03.625Z,12.96
2023-04-27T21:38:31.413Z,12.88
2023-04-27T21:40:59.792Z,12.93
2023-04-27T21:43:27.503Z,12.86
2023-04-27T21:45:55.335Z,12.95
2023-04-27T21:48:23.012Z,13.05
2023-04-27T21:50:51.291Z,13.12
2023-04-27T21:53:20.250Z,13.05
2023-04-27T21:55:49.338Z,13.07
2023-04-27T21:58:17.158Z,13.07
2023-04-27T22:00:44.844Z,13.14
2023-04-27T22:03:12.861Z,13.17
2023-04-27T22:05:40.627Z,13.06
2023-04-27T22:08:08.956Z,13.14
2023-04-27T22:10:38.037Z,13.16
2023-04-27T22:13:17.709Z,13.15
2023-04-27T22:15:46.463Z,13.21
2023-04-27T22:18:14.790Z,13.13
2023-04-27T22:20:42.929Z,13.38
2023-04-27T22:23:11.481Z,13.30
2023-04-27T22:25:42.722Z,13.40
2023-04-27T22:28:11.029Z,13.42
2023-04-27T22:30:39.848Z,13.35
2023-04-27T22:33:08.017Z,13.35
2023-04-27T22:35:36.885Z,13.38
2023-04-27T22:38:04.685Z,13.27
2023-04-27T22:40:32.338Z,12.85
2023-04-27T22:43:01.637Z,13.25
2023-04-27T22:45:29.287Z,13.01
2023-04-27T22:47:57.514Z,13.26
2023-04-27T22:50:25.215Z,13.25
2023-04-27T22:52:53.927Z,13.21
2023-04-27T22:55:22.199Z,13.25
2023-04-27T22:57:50.701Z,13.20
2023-04-27T23:00:19.830Z,13.12
2023-04-27T23:02:47.724Z,13.30
2023-04-27T23:05:16.523Z,13.28
2023-04-27T23:07:44.325Z,13.33
2023-04-27T23:10:12.905Z,13.27
2023-04-27T23:12:40.658Z,13.32
2023-04-27T23:15:09.386Z,13.23
2023-04-27T23:17:38.452Z,13.19
2023-04-27T23:20:24.057Z,13.20
2023-04-27T23:22:55.513Z,13.14
2023-04-27T23:25:23.214Z,13.19
2023-04-27T23:27:52.420Z,13.15
2023-04-27T23:30:21.247Z,13.17
2023-04-27T23:32:50.470Z,13.26
2023-04-27T23:35:18.185Z,13.24
2023-04-27T23:37:45.968Z,13.10
2023-04-27T23:40:14.115Z,13.17
2023-04-27T23:42:41.875Z,13.20
2023-04-27T23:45:10.027Z,13.15
2023-04-27T23:47:37.915Z,13.22
2023-04-27T23:50:07.925Z,13.29
2023-04-27T23:52:35.540Z,13.32
2023-04-27T23:55:03.146Z,13.42
2023-04-27T23:57:30.816Z,13.36
2023-04-27T23:59:58.414Z,13.27
